createdAt,value
2022-08-19T00:00:30.107Z,22.02
2022-08-19T00:02:58.834Z,27.03
2022-08-19T00:05:27.807Z,29.65
2022-08-19T00:07:56.119Z,25.00
2022-08-19T00:10:24.948Z,26.10
2022-08-19T00:12:54.342Z,23.23
2022-08-19T00:15:23.644Z,21.77
2022-08-19T00:17:52.238Z,20.67
2022-08-19T00:20:23.052Z,26.00
2022-08-19T00:22:51.248Z,25.75
2022-08-19T00:25:19.199Z,25.50
2022-08-19T00:28:00.328Z,25.50
2022-08-19T00:30:28.416Z,24.90
2022-08-19T00:32:56.635Z,27.15
2022-08-19T00:35:26.268Z,24.23
2022-08-19T00:37:55.837Z,25.63
2022-08-19T00:40:26.371Z,24.23
2022-08-19T00:42:55.335Z,27.05
2022-08-19T00:45:27.704Z,27.05
2022-08-19T00:47:55.586Z,31.20
2022-08-19T00:50:25.072Z,28.98
2022-08-19T00:52:53.529Z,27.60
2022-08-19T00:55:26.447Z,31.88
2022-08-19T00:57:57.039Z,30.73
2022-08-19T01:00:28.852Z,33.40
2022-08-19T01:02:57.101Z,24.60
2022-08-19T01:05:28.436Z,23.20
2022-08-19T01:07:59.281Z,23.73
2022-08-19T01:10:33.544Z,25.27
2022-08-19T01:13:05.057Z,28.92
2022-08-19T01:15:40.267Z,33.87
2022-08-19T01:18:09.584Z,29.25
2022-08-19T01:20:37.624Z,32.42
2022-08-19T01:23:07.024Z,34.55
2022-08-19T01:25:40.669Z,23.63
2022-08-19T01:28:10.613Z,22.88
2022-08-19T01:30:38.964Z,24.27
2022-08-19T01:33:12.392Z,19.17
2022-08-19T01:35:41.203Z,17.63
2022-08-19T01:38:22.604Z,25.95
2022-08-19T01:40:50.525Z,37.50
2022-08-19T01:43:19.923Z,41.05
2022-08-19T01:45:48.643Z,39.80
2022-08-19T01:48:16.664Z,37.80
2022-08-19T01:50:44.648Z,33.35
2022-08-19T01:53:17.193Z,32.38
2022-08-19T01:55:46.386Z,40.70
2022-08-19T01:58:17.752Z,35.92
2022-08-19T02:00:46.184Z,32.97
2022-08-19T02:03:14.891Z,31.65
2022-08-19T02:05:43.899Z,31.57
2022-08-19T02:08:12.635Z,30.70
2022-08-19T02:10:45.828Z,23.98
2022-08-19T02:13:15.714Z,22.07
2022-08-19T02:15:49.341Z,28.70
2022-08-19T02:18:18.241Z,23.35
2022-08-19T02:20:47.950Z,37.75
2022-08-19T02:23:16.642Z,42.13
2022-08-19T02:25:50.303Z,39.90
2022-08-19T02:28:19.262Z,44.78
2022-08-19T02:30:48.552Z,35.97
2022-08-19T02:33:18.759Z,41.55
2022-08-19T02:35:48.131Z,34.43
2022-08-19T02:38:26.889Z,57.53
2022-08-19T02:40:58.827Z,67.03
2022-08-19T02:43:28.397Z,64.27
2022-08-19T02:45:57.747Z,52.88
2022-08-19T02:48:27.689Z,52.83
2022-08-19T02:50:56.741Z,49.20
2022-08-19T02:53:26.396Z,39.40
2022-08-19T02:55:54.591Z,30.90
2022-08-19T02:58:25.391Z,32.90
2022-08-19T03:00:56.632Z,34.83
2022-08-19T03:03:24.703Z,40.88
2022-08-19T03:05:56.872Z,40.07
2022-08-19T03:08:26.902Z,38.40
2022-08-19T03:10:55.699Z,35.15
2022-08-19T03:13:25.279Z,45.30
2022-08-19T03:15:53.598Z,41.30
2022-08-19T03:18:23.322Z,45.50
2022-08-19T03:20:53.931Z,43.00
2022-08-19T03:23:22.298Z,41.47
2022-08-19T03:26:03.981Z,39.13
2022-08-19T03:28:51.351Z,34.67
2022-08-19T03:31:44.764Z,35.58
2022-08-19T03:34:13.544Z,41.08
2022-08-19T03:36:42.503Z,37.28
2022-08-19T03:39:11.436Z,32.40
2022-08-19T03:41:45.523Z,34.78
2022-08-19T03:44:17.994Z,38.53
2022-08-19T03:46:47.135Z,42.90
2022-08-19T03:49:15.573Z,43.55
2022-08-19T03:51:46.101Z,48.15
2022-08-19T03:54:16.615Z,52.70
2022-08-19T03:56:46.940Z,51.47
2022-08-19T03:59:17.759Z,56.30
2022-08-19T04:01:46.627Z,49.75
2022-08-19T04:04:14.486Z,35.27
2022-08-19T04:06:42.316Z,27.42
2022-08-19T04:09:11.984Z,31.63
2022-08-19T04:11:44.509Z,35.30
2022-08-19T04:14:15.175Z,36.05
2022-08-19T04:16:45.766Z,30.58
2022-08-19T04:19:14.262Z,33.83
2022-08-19T04:21:42.292Z,35.63
2022-08-19T04:24:11.315Z,41.53
2022-08-19T04:26:40.114Z,35.30
2022-08-19T04:29:12.776Z,39.33
2022-08-19T04:31:42.126Z,38.53
2022-08-19T04:34:12.847Z,41.45
2022-08-19T04:36:43.096Z,42.17
2022-08-19T04:39:13.911Z,33.25
2022-08-19T04:42:00.041Z,34.05
2022-08-19T04:44:33.106Z,50.70
2022-08-19T04:47:02.115Z,35.70
2022-08-19T04:49:40.386Z,42.65
2022-08-19T04:52:09.463Z,41.17
2022-08-19T04:54:39.403Z,49.60
2022-08-19T04:57:11.165Z,46.08
2022-08-19T04:59:40.746Z,41.65
2022-08-19T05:02:09.477Z,39.40
2022-08-19T05:04:40.191Z,35.60
2022-08-19T05:07:11.133Z,35.27
2022-08-19T05:09:58.427Z,38.45
2022-08-19T05:12:29.214Z,32.53
2022-08-19T05:14:57.714Z,32.35
2022-08-19T05:17:28.406Z,41.20
2022-08-19T05:20:16.658Z,28.80
2022-08-19T05:22:50.035Z,28.85
2022-08-19T05:25:21.470Z,46.17
2022-08-19T05:27:49.806Z,40.00
2022-08-19T05:30:18.983Z,39.72
2022-08-19T05:32:58.089Z,41.45
2022-08-19T05:35:26.075Z,37.85
2022-08-19T05:37:59.015Z,36.30
2022-08-19T05:40:27.151Z,40.38
2022-08-19T05:42:56.959Z,35.08
2022-08-19T05:45:25.595Z,39.28
2022-08-19T05:47:54.235Z,38.25
2022-08-19T05:50:23.563Z,35.40
2022-08-19T05:53:52.822Z,41.42
2022-08-19T05:56:22.146Z,32.35
2022-08-19T05:58:49.877Z,35.35
2022-08-19T06:01:20.190Z,33.17
2022-08-19T06:03:48.716Z,35.70
2022-08-19T06:06:18.498Z,33.45
2022-08-19T06:08:51.609Z,33.30
2022-08-19T06:11:24.692Z,30.85
2022-08-19T06:13:59.815Z,34.77
2022-08-19T06:16:29.374Z,29.73
2022-08-19T06:18:58.584Z,31.17
2022-08-19T06:21:29.464Z,31.38
2022-08-19T06:23:58.288Z,29.85
2022-08-19T06:26:28.563Z,32.85
2022-08-19T06:28:56.344Z,29.98
2022-08-19T06:31:27.330Z,29.07
2022-08-19T06:33:56.055Z,33.33
2022-08-19T06:36:28.029Z,29.73
2022-08-19T06:38:56.050Z,31.17
2022-08-19T06:41:23.936Z,33.17
2022-08-19T06:43:54.212Z,30.85
2022-08-19T06:46:24.506Z,32.53
2022-08-19T06:48:54.242Z,28.77
2022-08-19T06:51:23.268Z,31.95
2022-08-19T06:53:54.871Z,30.33
2022-08-19T06:56:26.716Z,30.27
2022-08-19T06:58:57.018Z,33.17
2022-08-19T07:01:24.876Z,29.50
2022-08-19T07:03:53.224Z,29.20
2022-08-19T07:09:10.585Z,30.10
2022-08-19T07:11:40.400Z,31.38
2022-08-19T07:14:19.171Z,32.42
2022-08-19T07:16:49.866Z,32.35
2022-08-19T07:19:18.606Z,27.65
2022-08-19T07:21:47.635Z,28.75
2022-08-19T07:24:16.292Z,31.10
2022-08-19T07:26:46.068Z,28.60
2022-08-19T07:29:17.531Z,32.67
2022-08-19T07:31:46.173Z,30.77
2022-08-19T07:34:15.713Z,33.53
2022-08-19T07:37:46.398Z,25.80
2022-08-19T07:40:14.819Z,25.23
2022-08-19T07:43:46.941Z,27.50
2022-08-19T07:47:49.678Z,27.13
2022-08-19T07:50:07.708Z,22.48
2022-08-19T07:52:36.955Z,24.70
2022-08-19T07:55:06.179Z,25.10
2022-08-19T07:57:34.998Z,26.77
2022-08-19T08:00:03.374Z,22.58
2022-08-19T08:02:32.026Z,21.70
2022-08-19T08:05:17.190Z,26.15
2022-08-19T08:08:03.616Z,28.85
2022-08-19T08:10:31.538Z,22.40
2022-08-19T08:13:09.220Z,18.02
2022-08-19T08:15:43.169Z,18.63
2022-08-19T08:18:12.944Z,20.33
2022-08-19T08:21:46.647Z,17.63
2022-08-19T08:24:19.668Z,14.98
2022-08-19T08:26:52.011Z,16.75
2022-08-19T08:29:20.376Z,17.38
2022-08-19T08:31:49.660Z,15.77
2022-08-19T08:35:32.587Z,15.30
2022-08-19T08:38:01.882Z,13.93
2022-08-19T08:40:35.780Z,13.25
2022-08-19T08:43:22.337Z,12.30
2022-08-19T08:45:54.624Z,8.95
2022-08-19T08:48:27.222Z,7.40
2022-08-19T08:50:57.524Z,11.40
2022-08-19T08:53:29.827Z,8.90
2022-08-19T08:56:04.897Z,8.05
2022-08-19T08:58:43.050Z,7.88
2022-08-19T09:01:11.877Z,11.35
2022-08-19T09:03:43.366Z,6.53
2022-08-19T09:06:16.957Z,6.22
2022-08-19T09:08:51.365Z,6.78
2022-08-19T09:11:44.467Z,8.40
2022-08-19T09:14:47.262Z,8.95
2022-08-19T09:17:09.688Z,9.23
2022-08-19T09:19:38.157Z,8.32
2022-08-19T09:22:08.647Z,7.88
2022-08-19T09:24:39.413Z,7.32
2022-08-19T09:27:18.419Z,8.95
2022-08-19T09:29:47.390Z,10.50
2022-08-19T09:32:26.260Z,11.27
2022-08-19T09:34:55.596Z,9.57
2022-08-19T09:37:24.080Z,6.70
2022-08-19T09:39:53.417Z,9.60
2022-08-19T09:42:30.553Z,6.22
2022-08-19T09:45:04.958Z,7.13
2022-08-19T09:47:33.773Z,6.67
2022-08-19T09:50:02.255Z,6.40
2022-08-19T09:52:32.839Z,5.30
2022-08-19T09:55:01.139Z,6.95
2022-08-19T09:57:37.686Z,5.27
2022-08-19T10:00:07.133Z,6.27
2022-08-19T10:02:35.064Z,5.93
2022-08-19T10:05:23.122Z,5.25
2022-08-19T10:07:56.819Z,6.25
2022-08-19T10:10:26.538Z,6.50
2022-08-19T10:12:57.142Z,5.25
2022-08-19T10:15:29.206Z,5.03
2022-08-19T10:18:01.017Z,5.05
2022-08-19T10:20:30.364Z,4.63
2022-08-19T10:23:00.280Z,5.38
2022-08-19T10:25:29.720Z,4.85
2022-08-19T10:28:01.502Z,4.15
2022-08-19T10:30:29.394Z,10.98
2022-08-19T10:32:57.110Z,5.13
2022-08-19T10:35:27.492Z,7.55
2022-08-19T10:37:57.615Z,2.88
2022-08-19T10:40:30.542Z,4.80
2022-08-19T10:42:59.670Z,4.93
2022-08-19T10:45:28.124Z,4.37
2022-08-19T10:47:56.394Z,3.47
2022-08-19T10:50:42.853Z,4.25
2022-08-19T10:53:12.380Z,5.93
2022-08-19T10:56:06.893Z,4.60
2022-08-19T10:58:36.145Z,4.97
2022-08-19T11:01:03.824Z,4.93
2022-08-19T11:03:32.186Z,7.20
2022-08-19T11:06:00.929Z,6.32
2022-08-19T11:08:28.747Z,5.25
2022-08-19T11:11:01.685Z,7.60
2022-08-19T11:13:30.890Z,8.85
2022-08-19T11:16:08.276Z,5.45
2022-08-19T11:18:38.300Z,8.15
2022-08-19T11:21:11.499Z,5.75
2022-08-19T11:23:39.772Z,4.22
2022-08-19T11:26:07.735Z,4.80
2022-08-19T11:28:35.605Z,6.75
2022-08-19T11:31:05.147Z,9.50
2022-08-19T11:33:33.704Z,6.45
2022-08-19T11:36:02.671Z,6.47
2022-08-19T11:38:31.508Z,4.93
2022-08-19T11:41:00.320Z,5.70
2022-08-19T11:43:28.821Z,8.50
2022-08-19T11:45:57.119Z,6.80
2022-08-19T11:48:27.859Z,7.25
2022-08-19T11:50:57.482Z,7.40
2022-08-19T11:53:25.924Z,10.43
2022-08-19T11:55:57.027Z,9.05
2022-08-19T11:58:25.805Z,8.20
2022-08-19T12:00:54.038Z,8.80
2022-08-19T12:03:21.671Z,10.20
2022-08-19T12:05:52.419Z,10.65
2022-08-19T12:08:20.961Z,8.23
2022-08-19T12:10:48.670Z,8.88
2022-08-19T12:13:19.549Z,12.13
2022-08-19T12:15:48.950Z,11.70
2022-08-19T12:18:17.142Z,11.60
2022-08-19T12:20:46.959Z,9.10
2022-08-19T12:23:16.539Z,8.67
2022-08-19T12:25:49.504Z,10.15
2022-08-19T12:28:17.762Z,9.57
2022-08-19T12:30:45.648Z,25.60
2022-08-19T12:33:14.650Z,10.60
2022-08-19T12:35:45.675Z,9.30
2022-08-19T12:38:14.263Z,6.50
2022-08-19T12:40:43.820Z,8.93
2022-08-19T12:43:12.610Z,9.75
2022-08-19T12:45:40.781Z,6.28
2022-08-19T12:48:34.435Z,7.88
2022-08-19T12:50:58.294Z,7.68
2022-08-19T12:53:27.315Z,6.45
2022-08-19T12:55:58.627Z,7.45
2022-08-19T12:58:27.453Z,5.82
2022-08-19T13:00:55.943Z,4.38
2022-08-19T13:03:28.398Z,5.80
2022-08-19T13:05:57.340Z,9.90
2022-08-19T13:08:25.581Z,7.30
2022-08-19T13:10:54.482Z,6.32
2022-08-19T13:13:23.889Z,5.00
2022-08-19T13:15:52.056Z,4.82
2022-08-19T13:18:20.078Z,6.68
2022-08-19T13:20:52.746Z,4.93
2022-08-19T13:23:20.950Z,5.60
2022-08-19T13:25:58.095Z,4.53
2022-08-19T13:28:49.398Z,6.75
2022-08-19T13:31:35.954Z,7.18
2022-08-19T13:34:03.656Z,9.35
2022-08-19T13:36:31.580Z,4.78
2022-08-19T13:39:00.246Z,10.27
2022-08-19T13:41:28.883Z,8.18
2022-08-19T13:43:58.218Z,7.70
2022-08-19T13:46:26.040Z,7.20
2022-08-19T13:48:55.529Z,6.80
2022-08-19T13:51:23.837Z,7.25
2022-08-19T13:53:52.759Z,5.50
2022-08-19T13:56:25.549Z,7.03
2022-08-19T13:58:54.745Z,5.15
2022-08-19T14:01:31.778Z,11.55
2022-08-19T14:04:00.519Z,8.15
2022-08-19T14:06:28.526Z,7.20
2022-08-19T14:08:56.283Z,9.80
2022-08-19T14:11:24.583Z,8.88
2022-08-19T14:13:53.055Z,12.18
2022-08-19T14:16:20.879Z,11.73
2022-08-19T14:18:50.306Z,9.48
2022-08-19T14:21:22.184Z,8.33
2022-08-19T14:23:52.149Z,8.25
2022-08-19T14:26:21.501Z,7.03
2022-08-19T14:28:50.329Z,7.70
2022-08-19T14:31:20.450Z,8.73
2022-08-19T14:33:52.792Z,7.93
2022-08-19T14:36:22.806Z,6.95
2022-08-19T14:38:51.007Z,7.97
2022-08-19T14:41:22.873Z,5.53
2022-08-19T14:43:54.136Z,6.90
2022-08-19T14:46:24.185Z,8.40
2022-08-19T14:48:54.855Z,8.65
2022-08-19T14:51:27.456Z,9.80
2022-08-19T14:53:57.599Z,13.25
2022-08-19T14:56:27.288Z,8.30
2022-08-19T14:58:55.969Z,6.68
2022-08-19T15:01:24.852Z,8.07
2022-08-19T15:03:55.753Z,7.80
2022-08-19T15:06:24.743Z,10.02
2022-08-19T15:08:54.285Z,7.82
2022-08-19T15:11:24.500Z,6.78
2022-08-19T15:13:53.457Z,9.13
2022-08-19T15:16:22.264Z,5.53
2022-08-19T15:18:51.981Z,7.93
2022-08-19T15:21:26.489Z,11.53
2022-08-19T15:23:57.292Z,6.63
2022-08-19T15:26:28.637Z,5.50
2022-08-19T15:28:57.664Z,6.28
2022-08-19T15:31:29.078Z,5.10
2022-08-19T15:33:58.413Z,5.07
2022-08-19T15:36:31.176Z,6.32
2022-08-19T15:39:00.093Z,8.73
2022-08-19T15:41:32.544Z,5.93
2022-08-19T15:44:08.217Z,10.75
2022-08-19T15:46:38.021Z,10.23
2022-08-19T15:49:07.157Z,6.93
2022-08-19T15:51:41.879Z,7.35
2022-08-19T15:54:12.144Z,9.35
2022-08-19T15:56:58.678Z,16.17
2022-08-19T15:59:47.510Z,6.38
2022-08-19T16:02:33.065Z,10.05
2022-08-19T16:05:21.466Z,9.27
2022-08-19T16:07:51.148Z,10.35
2022-08-19T16:10:26.920Z,6.50
2022-08-19T16:12:58.616Z,6.00
2022-08-19T16:15:28.004Z,6.32
2022-08-19T16:17:58.521Z,9.33
2022-08-19T16:20:28.181Z,12.47
2022-08-19T16:22:58.684Z,8.98
2022-08-19T16:25:28.951Z,7.03
2022-08-19T16:28:06.260Z,9.83
2022-08-19T16:30:34.992Z,8.23
2022-08-19T16:33:05.041Z,9.52
2022-08-19T16:35:34.035Z,10.15
2022-08-19T16:38:07.131Z,7.70
2022-08-19T16:40:36.266Z,8.40
2022-08-19T16:43:04.469Z,8.75
2022-08-19T16:45:32.590Z,7.55
2022-08-19T16:48:00.250Z,8.93
2022-08-19T16:50:47.842Z,9.25
2022-08-19T16:53:22.889Z,7.97
2022-08-19T16:55:57.454Z,11.07
2022-08-19T16:58:28.040Z,8.90
2022-08-19T17:01:02.048Z,16.50
2022-08-19T17:03:35.834Z,10.35
2022-08-19T17:06:16.164Z,10.32
2022-08-19T17:08:52.974Z,11.27
2022-08-19T17:11:22.992Z,9.70
2022-08-19T17:14:52.397Z,7.38
2022-08-19T17:17:23.800Z,7.43
2022-08-19T17:19:56.618Z,8.68
2022-08-19T17:23:42.663Z,9.07
2022-08-19T17:26:15.857Z,14.65
2022-08-19T17:28:49.243Z,8.38
2022-08-19T17:32:24.918Z,11.18
2022-08-19T17:34:54.927Z,8.57
2022-08-19T17:37:24.011Z,6.32
2022-08-19T17:39:51.807Z,6.15
2022-08-19T17:42:23.628Z,6.45
2022-08-19T17:48:32.859Z,9.27
2022-08-19T17:51:01.155Z,5.63
2022-08-19T17:53:29.590Z,4.80
2022-08-19T17:55:57.356Z,6.50
2022-08-19T17:58:28.594Z,4.85
2022-08-19T18:00:57.715Z,5.32
2022-08-19T18:03:26.627Z,8.17
2022-08-19T18:05:56.021Z,4.65
2022-08-19T18:08:25.701Z,5.85
2022-08-19T18:10:54.358Z,4.30
2022-08-19T18:13:22.089Z,7.05
2022-08-19T18:15:54.531Z,4.73
2022-08-19T18:18:23.460Z,5.00
2022-08-19T18:20:51.567Z,4.57
2022-08-19T18:23:44.754Z,5.82
2022-08-19T18:26:09.318Z,5.50
2022-08-19T18:28:47.934Z,6.47
2022-08-19T18:31:19.494Z,7.47
2022-08-19T18:33:48.178Z,7.05
2022-08-19T18:36:27.864Z,14.23
2022-08-19T18:39:19.416Z,19.27
2022-08-19T18:42:06.377Z,21.65
2022-08-19T18:44:59.226Z,25.67
2022-08-19T18:47:48.573Z,21.42
2022-08-19T18:50:16.352Z,23.55
2022-08-19T18:52:44.573Z,21.83
2022-08-19T18:55:16.476Z,24.52
2022-08-19T18:57:44.417Z,25.40
2022-08-19T19:00:14.177Z,29.75
2022-08-19T19:02:44.241Z,24.90
2022-08-19T19:05:14.458Z,30.02
2022-08-19T19:07:42.892Z,28.05
2022-08-19T19:10:11.794Z,30.70
2022-08-19T19:12:44.446Z,26.33
2022-08-19T19:15:12.362Z,27.25
2022-08-19T19:17:42.108Z,28.05
2022-08-19T19:20:12.058Z,32.80
2022-08-19T19:22:40.764Z,29.25
2022-08-19T19:25:12.050Z,27.30
2022-08-19T19:27:40.907Z,31.50
2022-08-19T19:30:09.714Z,28.43
2022-08-19T19:32:39.134Z,28.95
2022-08-19T19:35:09.808Z,27.80
2022-08-19T19:37:43.640Z,35.00
2022-08-19T19:40:11.705Z,30.07
2022-08-19T19:42:39.613Z,32.67
2022-08-19T19:45:08.380Z,28.20
2022-08-19T19:47:36.429Z,29.77
2022-08-19T19:50:14.195Z,25.80
2022-08-19T19:52:46.706Z,21.73
2022-08-19T19:55:18.310Z,22.17
2022-08-19T19:57:47.444Z,25.70
2022-08-19T20:00:18.450Z,23.58
2022-08-19T20:02:50.199Z,23.57
2022-08-19T20:05:21.025Z,23.93
2022-08-19T20:08:11.944Z,27.83
2022-08-19T20:10:42.706Z,23.13
2022-08-19T20:13:11.016Z,23.88
2022-08-19T20:15:43.574Z,24.45
2022-08-19T20:18:13.427Z,22.05
2022-08-19T20:20:41.801Z,24.85
2022-08-19T20:23:11.001Z,24.50
2022-08-19T20:25:39.826Z,24.92
2022-08-19T20:28:07.528Z,26.23
2022-08-19T20:30:36.287Z,25.85
2022-08-19T20:33:08.437Z,26.20
2022-08-19T20:35:38.021Z,27.83
2022-08-19T20:38:08.825Z,27.35
2022-08-19T20:40:41.180Z,29.42
2022-08-19T20:43:11.342Z,27.38
2022-08-19T20:45:39.400Z,25.80
2022-08-19T20:48:08.910Z,28.50
2022-08-19T20:50:37.215Z,25.73
2022-08-19T20:53:12.577Z,25.05
2022-08-19T20:55:45.530Z,24.65
2022-08-19T20:58:14.632Z,23.07
2022-08-19T21:00:45.713Z,21.02
2022-08-19T21:03:14.597Z,19.27
2022-08-19T21:05:42.526Z,18.35
2022-08-19T21:08:10.914Z,20.63
2022-08-19T21:10:42.274Z,17.30
2022-08-19T21:13:14.779Z,21.73
2022-08-19T21:15:44.154Z,18.83
2022-08-19T21:18:13.737Z,20.40
2022-08-19T21:20:42.649Z,20.83
2022-08-19T21:23:13.455Z,19.25
2022-08-19T21:25:41.506Z,19.73
2022-08-19T21:28:29.914Z,19.00
2022-08-19T21:31:10.562Z,20.38
2022-08-19T21:33:39.181Z,20.63
2022-08-19T21:36:07.903Z,18.88
2022-08-19T21:38:36.026Z,22.08
2022-08-19T21:41:06.088Z,19.63
2022-08-19T21:43:35.718Z,19.65
2022-08-19T21:46:06.213Z,20.92
2022-08-19T21:48:34.308Z,22.88
2022-08-19T21:51:02.081Z,18.30
2022-08-19T21:53:34.118Z,20.77
2022-08-19T21:56:04.177Z,21.67
2022-08-19T21:58:31.906Z,23.95
2022-08-19T22:01:06.484Z,20.73
2022-08-19T22:03:34.947Z,21.42
2022-08-19T22:06:02.817Z,20.83
2022-08-19T22:08:31.454Z,19.67
2022-08-19T22:11:00.886Z,19.63
2022-08-19T22:13:32.268Z,21.63
2022-08-19T22:16:01.705Z,20.77
2022-08-19T22:18:31.585Z,20.33
2022-08-19T22:21:00.366Z,18.60
2022-08-19T22:23:28.263Z,20.17
2022-08-19T22:25:56.935Z,19.48
2022-08-19T22:28:28.030Z,21.13
2022-08-19T22:30:57.378Z,20.20
2022-08-19T22:33:27.670Z,22.70
2022-08-19T22:35:55.755Z,19.02
2022-08-19T22:38:24.694Z,18.30
2022-08-19T22:40:53.344Z,18.65
2022-08-19T22:43:24.902Z,18.05
2022-08-19T22:45:54.745Z,20.08
2022-08-19T22:48:24.340Z,19.38
2022-08-19T22:51:56.331Z,19.17
2022-08-19T22:54:27.288Z,19.88
2022-08-19T22:56:56.913Z,20.80
2022-08-19T22:59:25.722Z,22.15
2022-08-19T23:01:54.721Z,21.85
2022-08-19T23:04:23.229Z,22.95
2022-08-19T23:06:52.860Z,19.45
2022-08-19T23:09:23.479Z,21.70
2022-08-19T23:11:56.805Z,21.83
2022-08-19T23:14:26.441Z,20.97
2022-08-19T23:16:58.768Z,20.30
2022-08-19T23:19:27.330Z,20.60
2022-08-19T23:21:57.642Z,20.60
2022-08-19T23:24:26.982Z,19.42
2022-08-19T23:27:15.786Z,18.83
2022-08-19T23:30:01.983Z,20.48
2022-08-19T23:32:29.936Z,18.42
2022-08-19T23:35:59.311Z,19.13
2022-08-19T23:38:30.198Z,18.70
2022-08-19T23:40:59.760Z,21.38
2022-08-19T23:43:31.406Z,20.73
2022-08-19T23:46:10.493Z,19.23
2022-08-19T23:48:39.833Z,18.30
2022-08-19T23:51:10.624Z,19.50
2022-08-19T23:53:39.348Z,21.10
2022-08-19T23:56:08.554Z,26.10
2022-08-19T23:58:39.519Z,22.77
